Метеостанция


АнтоновUKKM 261630Z AUTO 26005MPS 9000 // NCD 08/03 Q1017
БориспольUKBB 261630Z 25004MPS CAVOK 07/02 Q1017 R18L/CLRD// NOSIG
Гаврышовка (Винница)UKWW 261630Z 26004MPS CAVOK 06/01 Q1020 R13/0///65 NOSIG
ДнепропетровскUKDD 261630Z 23004MPS CAVOK 06/04 Q1018 R26/210370 NOSIG
ЖуляныUKKK 261630Z 26004MPS 8000 NSC 07/03 Q1018 R26/190058 NOSIG
Запорожье(Мокрая)UKDE 261630Z 21003MPS 6000 NSC 07/05 Q1019 R20/210370 NOSIG
Ивано-ФранковскUKLI 261630Z 00000MPS CAVOK 09/02 Q1021 R28/090070 NOSIG
Кривой РогUKDR 261630Z 28004MPS CAVOK 05/03 Q1019 R18/09//65 NOSIG
ЛьвовUKLL 261630Z 00000MPS CAVOK 05/02 Q1021 R31/CLRD// NOSIG
НиколаевUKON 261400Z 24007MPS CAVOK 15/08 Q1021 R22/090075 NOSIG=
ОдессаUKOO 261630Z 16002MPS 9999 2600N BR NSC 10/07 Q1021 R16/090060 NOSIG
РовноUKLR 261500Z 26004MPS CAVOK 05/02 Q1021 NOSIG=
УжгородUKLU 261600Z 00000MPS 9999 NSC 12/07 Q1023 NOSIG
ХарьковUKHH 261630Z 27005MPS CAVOK 06/04 Q1015 R25/0///81 NOSIG
ЧерновцыUKLN 261630Z 00000MPS CAVOK 11/03 Q1021 R33/09//70 NOSIG
Скачать:
Скачать этот файл (Metar_шпаргалка.jpg)Расшифровка METAR[ ]4799 Кб
Вся информация, которая имеется в использовании на сайте и доступная для скачивания, получена исключительно из открытых источников информации сети Интернет, всякое совпадение с данными, имеющими ограничения в доступе, случайное и не является преднамеренным.
^ Наверх